createdAt,value
2022-10-31T00:05:16.019Z,14.3
2022-10-31T00:20:18.286Z,14.62
2022-10-31T00:35:20.648Z,14.35
2022-10-31T00:50:23.011Z,14.12
2022-10-31T01:05:25.352Z,14.39
2022-10-31T01:20:27.576Z,13.89
2022-10-31T01:35:29.786Z,13.72
2022-10-31T01:50:32.141Z,13.74
2022-10-31T02:05:34.496Z,13.82
2022-10-31T02:20:36.734Z,13.28
2022-10-31T02:35:38.961Z,13.51
2022-10-31T02:50:41.173Z,13.86
2022-10-31T03:05:43.396Z,12.26
2022-10-31T03:20:45.645Z,12.31
2022-10-31T03:35:48.118Z,12.98
2022-10-31T03:50:50.381Z,12.82
2022-10-31T04:05:52.595Z,12.72
2022-10-31T04:20:54.829Z,12.98
2022-10-31T04:35:56.982Z,12.7
2022-10-31T04:50:59.277Z,12.98
2022-10-31T05:06:01.562Z,13.41
2022-10-31T05:21:03.899Z,13.11
2022-10-31T05:36:06.191Z,13.19
2022-10-31T05:51:08.441Z,13.15
2022-10-31T06:06:10.647Z,12.99
2022-10-31T06:21:14.992Z,12.89
2022-10-31T06:36:20.286Z,12.97
2022-10-31T06:51:22.624Z,12.91
2022-10-31T07:06:24.856Z,12.9
2022-10-31T07:21:27.345Z,12.59
2022-10-31T07:36:29.673Z,12.9
2022-10-31T07:51:32.002Z,12.82
2022-10-31T08:06:34.220Z,13.11
2022-10-31T08:21:36.641Z,12.93
2022-10-31T08:36:38.871Z,12.8
2022-10-31T08:51:42.183Z,13.2
2022-10-31T09:07:08.037Z,13.32
2022-10-31T09:22:22.177Z,12.05
2022-10-31T09:37:24.517Z,12.7
2022-10-31T09:52:26.913Z,12.74
2022-10-31T10:07:29.228Z,12.83
2022-10-31T10:22:31.544Z,12.51
2022-10-31T10:37:33.764Z,12.5
2022-10-31T10:52:42.045Z,11.8
2022-10-31T11:07:47.045Z,12.32
2022-10-31T11:22:49.336Z,12.15
2022-10-31T11:37:51.673Z,12.36
2022-10-31T12:08:00.557Z,12.08
2022-10-31T12:23:07.001Z,11.7
2022-10-31T12:38:09.213Z,11.96
2022-10-31T12:53:11.584Z,12.21
2022-10-31T13:08:13.822Z,11.94
2022-10-31T13:23:30.035Z,12.07
2022-10-31T13:38:39.289Z,11.35
2022-10-31T13:53:41.585Z,11.49
2022-10-31T14:08:43.858Z,11.45
2022-10-31T14:23:48.396Z,11.53
2022-10-31T14:38:53.168Z,11.98
2022-10-31T14:53:55.399Z,11.93
2022-10-31T15:08:57.616Z,11.1
2022-10-31T15:23:59.859Z,11.58
2022-10-31T15:39:02.211Z,11.57
2022-10-31T15:54:04.489Z,11.6
2022-10-31T16:09:06.763Z,11.97
2022-10-31T16:24:09.042Z,12.24
2022-10-31T16:39:11.389Z,12.48
2022-10-31T16:54:14.122Z,12.34
2022-10-31T17:09:16.374Z,12.48
2022-10-31T17:24:18.628Z,12.46
2022-10-31T17:39:20.873Z,12.71
2022-10-31T17:54:23.103Z,12.64
2022-10-31T18:09:25.376Z,12.81
2022-10-31T18:24:27.587Z,12.85
2022-10-31T18:39:29.835Z,12.63
2022-10-31T18:54:32.064Z,12.51
2022-10-31T19:09:34.400Z,12.66
2022-10-31T19:24:36.621Z,13
2022-10-31T19:39:43.637Z,13.26
2022-10-31T19:54:46.529Z,13.02
2022-10-31T20:09:48.792Z,13.28
2022-10-31T20:24:51.061Z,13.04
2022-10-31T20:39:55.768Z,12.79
2022-10-31T20:54:59.106Z,13.24
2022-10-31T21:10:01.423Z,13.02
2022-10-31T21:25:03.624Z,12.71
2022-10-31T21:40:05.900Z,13.02
2022-10-31T21:55:08.464Z,13.63
2022-10-31T22:10:10.728Z,13.4
2022-10-31T22:25:12.966Z,13.76
2022-10-31T22:40:15.218Z,13.69
2022-10-31T22:55:17.440Z,13.63
2022-10-31T23:10:19.758Z,13
2022-10-31T23:25:22.019Z,13.1
2022-10-31T23:40:24.269Z,13.64
2022-10-31T23:55:26.533Z,13.57
